Colorado Springs, CO (80924)

6:09 PM MDT on June 29, 2015 (GMT -0600)
Charleston Place, Briargate, CO | | Change Station
CLOSE
Current Station
Personal Weather Station
Location: Colorado Springs, CO
Elevation: 6870 ft
Nearby Weather Stations

Elev 6870 ft 38.95 °N, 104.76 °W | Updated 8 seconds ago

Mostly Cloudy
Mostly Cloudy
84.6 °F
Feels Like 82 °F
N
3.5
Wind Variable Wind from NNE
Gusts 3.5 mph

Today
High -- | Low -- °F
--% Chance of Precip.
Yesterday
High -- | Low -- °F
Precip. -- in
5:36 AM 8:28 PM
Waxing Gibbous, 95% visible
Pressure 30.03 in
Visibility 10.0 miles
Clouds Clear
Heat Index 82 °F
Dew Point 49 °F
Humidity 29%
Rainfall 0.00 in
Snow Depth Not available.
UV 3 out of 12
Pollen 6.10 out of 12
Air Quality Not available.
Flu Activity Sporadic
METAR KAFF 292358Z AUTO 04009G16KT 10SM CLR 26/09 A3029 RMK AO2 SLP168 T02620087 10271 20242 55002

More Conditions Fewer Conditions

Pressure 30.03 in
Visibility 10.0 miles
Clouds Clear
Heat Index 82 °F
Dew Point 49 °F
Humidity 29%
Rainfall 0.00 in
Snow Depth Not available.
UV 3 out of 12
Pollen 6.10 out of 12
Air Quality Not available.
Flu Activity Sporadic
METAR KAFF 292358Z AUTO 04009G16KT 10SM CLR 26/09 A3029 RMK AO2 SLP168 T02620087 10271 20242 55002

More Conditions Fewer Conditions

10-Day Weather Forecast

×

Almanac

Astronomy

Jun. 29, 2015 Rise Set
Actual Time
Civil Twilight
Nautical Twilight
Astronomical Twilight
Moon
Length of Visible Light
Length of Day
Tomorrow will be .
, % of the Moon is Illuminated

Today's Extremes

State Highs State Lows

Community

WunderPhotos

Upload Photos

1,833,889 photos uploaded!

WunderBlogs® & News

Nearby

Air Quality

  Air Quality AQ Index Pollutant
Not available.

Snow Depth

Station Depth Elevation

Earthquake Activity

City Distance Mag. Time & Date
Minimum magnitude displayed is 2.5.

Coastal Water Temperatures

Place Temperature

Stations

Nearby Weather Stations

Station Location Temp. Windchill Dew Point Humidity Wind Precip. Elev Updated Type